sensor_id;sensor_type;location;lat;lon;timestamp;P1;durP1;ratioP1;P2;durP2;ratioP2
9310;SDS011;4694;52.464;13.480;2023-04-24T05:32:03;7.65;;;4.53;;
9310;SDS011;4694;52.464;13.480;2023-04-24T05:34:30;7.80;;;4.57;;
9310;SDS011;4694;52.464;13.480;2023-04-24T05:36:57;6.28;;;4.10;;
9310;SDS011;4694;52.464;13.480;2023-04-24T05:39:24;5.10;;;3.80;;
9310;SDS011;4694;52.464;13.480;2023-04-24T05:41:52;7.78;;;4.07;;
9310;SDS011;4694;52.464;13.480;2023-04-24T05:44:20;8.68;;;3.58;;
9310;SDS011;4694;52.464;13.480;2023-04-24T05:46:47;3.97;;;3.33;;
9310;SDS011;4694;52.464;13.480;2023-04-24T05:49:15;5.55;;;3.42;;
9310;SDS011;4694;52.464;13.480;2023-04-24T05:51:42;4.10;;;2.72;;
9310;SDS011;4694;52.464;13.480;2023-04-24T05:54:09;2.90;;;2.50;;
9310;SDS011;4694;52.464;13.480;2023-04-24T05:56:37;5.15;;;2.50;;
9310;SDS011;4694;52.464;13.480;2023-04-24T05:59:04;5.72;;;2.60;;
9310;SDS011;4694;52.464;13.480;2023-04-24T06:01:33;4.07;;;2.42;;
9310;SDS011;4694;52.464;13.480;2023-04-24T06:04:01;3.10;;;2.20;;
9310;SDS011;4694;52.464;13.480;2023-04-24T06:06:29;4.38;;;2.78;;
9310;SDS011;4694;52.464;13.480;2023-04-24T06:08:57;3.45;;;2.60;;
9310;SDS011;4694;52.464;13.480;2023-04-24T06:11:24;2.53;;;2.00;;
9310;SDS011;4694;52.464;13.480;2023-04-24T06:13:51;2.80;;;2.22;;
9310;SDS011;4694;52.464;13.480;2023-04-24T06:16:18;4.68;;;1.58;;
9310;SDS011;4694;52.464;13.480;2023-04-24T06:18:45;1.95;;;1.60;;
9310;SDS011;4694;52.464;13.480;2023-04-24T06:21:13;3.50;;;2.42;;
9310;SDS011;4694;52.464;13.480;2023-04-24T06:23:41;4.75;;;2.08;;
9310;SDS011;4694;52.464;13.480;2023-04-24T06:26:08;2.25;;;1.88;;
9310;SDS011;4694;52.464;13.480;2023-04-24T06:28:35;2.33;;;1.50;;
9310;SDS011;4694;52.464;13.480;2023-04-24T06:31:02;2.38;;;1.85;;
9310;SDS011;4694;52.464;13.480;2023-04-24T06:33:29;2.20;;;1.45;;
9310;SDS011;4694;52.464;13.480;2023-04-24T06:35:56;1.30;;;1.20;;
9310;SDS011;4694;52.464;13.480;2023-04-24T06:38:23;2.67;;;1.13;;
9310;SDS011;4694;52.464;13.480;2023-04-24T06:40:52;2.08;;;0.80;;
9310;SDS011;4694;52.464;13.480;2023-04-24T06:43:19;2.92;;;1.20;;
9310;SDS011;4694;52.464;13.480;2023-04-24T06:45:46;0.98;;;0.60;;
9310;SDS011;4694;52.464;13.480;2023-04-24T06:48:13;1.17;;;0.80;;
9310;SDS011;4694;52.464;13.480;2023-04-24T06:50:40;2.58;;;1.40;;
9310;SDS011;4694;52.464;13.480;2023-04-24T06:53:07;1.13;;;0.70;;
9310;SDS011;4694;52.464;13.480;2023-04-24T06:55:36;1.00;;;0.90;;
9310;SDS011;4694;52.464;13.480;2023-04-24T06:58:04;1.38;;;0.90;;
9310;SDS011;4694;52.464;13.480;2023-04-24T07:00:31;2.38;;;0.95;;
9310;SDS011;4694;52.464;13.480;2023-04-24T07:02:58;1.50;;;1.17;;
9310;SDS011;4694;52.464;13.480;2023-04-24T07:05:25;1.27;;;0.80;;
9310;SDS011;4694;52.464;13.480;2023-04-24T07:07:53;2.10;;;0.90;;
9310;SDS011;4694;52.464;13.480;2023-04-24T07:10:20;1.33;;;0.85;;
9310;SDS011;4694;52.464;13.480;2023-04-24T07:12:47;1.10;;;0.82;;
9310;SDS011;4694;52.464;13.480;2023-04-24T07:15:15;1.10;;;0.98;;
9310;SDS011;4694;52.464;13.480;2023-04-24T07:17:42;2.67;;;0.73;;
9310;SDS011;4694;52.464;13.480;2023-04-24T07:20:10;1.33;;;0.85;;
9310;SDS011;4694;52.464;13.480;2023-04-24T07:22:39;0.98;;;0.98;;
9310;SDS011;4694;52.464;13.480;2023-04-24T07:25:06;0.90;;;0.50;;
9310;SDS011;4694;52.464;13.480;2023-04-24T07:27:34;2.28;;;0.40;;
9310;SDS011;4694;52.464;13.480;2023-04-24T07:30:01;1.13;;;0.77;;
9310;SDS011;4694;52.464;13.480;2023-04-24T07:32:30;1.05;;;0.68;;
9310;SDS011;4694;52.464;13.480;2023-04-24T07:34:57;1.83;;;0.50;;
9310;SDS011;4694;52.464;13.480;2023-04-24T07:37:27;1.17;;;0.60;;
9310;SDS011;4694;52.464;13.480;2023-04-24T07:39:55;0.90;;;0.57;;
9310;SDS011;4694;52.464;13.480;2023-04-24T07:42:22;1.58;;;0.52;;
9310;SDS011;4694;52.464;13.480;2023-04-24T07:44:50;0.70;;;0.50;;
9310;SDS011;4694;52.464;13.480;2023-04-24T07:47:17;1.38;;;0.50;;
9310;SDS011;4694;52.464;13.480;2023-04-24T07:49:45;0.90;;;0.80;;
9310;SDS011;4694;52.464;13.480;2023-04-24T07:52:12;3.63;;;1.77;;
9310;SDS011;4694;52.464;13.480;2023-04-24T07:54:40;2.95;;;0.80;;
9310;SDS011;4694;52.464;13.480;2023-04-24T07:57:07;1.55;;;0.40;;
9310;SDS011;4694;52.464;13.480;2023-04-24T07:59:34;1.85;;;0.30;;
9310;SDS011;4694;52.464;13.480;2023-04-24T08:02:01;0.85;;;0.70;;
9310;SDS011;4694;52.464;13.480;2023-04-24T08:04:28;2.53;;;0.43;;
9310;SDS011;4694;52.464;13.480;2023-04-24T08:06:57;0.47;;;0.40;;
9310;SDS011;4694;52.464;13.480;2023-04-24T08:09:24;2.58;;;0.43;;
9310;SDS011;4694;52.464;13.480;2023-04-24T08:11:51;0.88;;;0.38;;
9310;SDS011;4694;52.464;13.480;2023-04-24T08:14:18;1.05;;;0.40;;
9310;SDS011;4694;52.464;13.480;2023-04-24T08:16:46;1.60;;;0.65;;
9310;SDS011;4694;52.464;13.480;2023-04-24T08:19:13;1.75;;;0.50;;
9310;SDS011;4694;52.464;13.480;2023-04-24T08:21:40;1.67;;;1.20;;
9310;SDS011;4694;52.464;13.480;2023-04-24T08:24:08;0.90;;;0.52;;
9310;SDS011;4694;52.464;13.480;2023-04-24T08:26:35;0.40;;;0.40;;
9310;SDS011;4694;52.464;13.480;2023-04-24T08:29:02;0.95;;;0.60;;
9310;SDS011;4694;52.464;13.480;2023-04-24T08:31:30;1.52;;;0.88;;
9310;SDS011;4694;52.464;13.480;2023-04-24T08:33:57;1.40;;;0.60;;
9310;SDS011;4694;52.464;13.480;2023-04-24T08:36:24;0.70;;;0.70;;
9310;SDS011;4694;52.464;13.480;2023-04-24T08:38:52;1.50;;;0.50;;
9310;SDS011;4694;52.464;13.480;2023-04-24T08:41:20;2.33;;;0.20;;
9310;SDS011;4694;52.464;13.480;2023-04-24T08:43:51;1.92;;;0.40;;
9310;SDS011;4694;52.464;13.480;2023-04-24T08:46:18;0.50;;;0.50;;
9310;SDS011;4694;52.464;13.480;2023-04-24T08:48:46;1.55;;;0.20;;
9310;SDS011;4694;52.464;13.480;2023-04-24T08:51:13;0.95;;;0.40;;
9310;SDS011;4694;52.464;13.480;2023-04-24T08:53:40;0.38;;;0.35;;
9310;SDS011;4694;52.464;13.480;2023-04-24T08:56:07;0.77;;;0.40;;
9310;SDS011;4694;52.464;13.480;2023-04-24T08:58:35;1.50;;;0.55;;
9310;SDS011;4694;52.464;13.480;2023-04-24T09:01:03;4.05;;;0.35;;
9310;SDS011;4694;52.464;13.480;2023-04-24T09:03:31;0.63;;;0.30;;
9310;SDS011;4694;52.464;13.480;2023-04-24T09:05:59;1.00;;;0.40;;
9310;SDS011;4694;52.464;13.480;2023-04-24T09:08:26;0.50;;;0.50;;
9310;SDS011;4694;52.464;13.480;2023-04-24T09:10:54;1.75;;;0.30;;
9310;SDS011;4694;52.464;13.480;2023-04-24T09:13:23;2.55;;;0.50;;
9310;SDS011;4694;52.464;13.480;2023-04-24T09:15:51;1.50;;;0.30;;
9310;SDS011;4694;52.464;13.480;2023-04-24T09:18:19;2.80;;;0.40;;
9310;SDS011;4694;52.464;13.480;2023-04-24T09:20:56;1.33;;;0.30;;
9310;SDS011;4694;52.464;13.480;2023-04-24T09:23:25;0.98;;;0.52;;
9310;SDS011;4694;52.464;13.480;2023-04-24T09:25:54;1.55;;;0.40;;
9310;SDS011;4694;52.464;13.480;2023-04-24T09:28:24;0.63;;;0.43;;
9310;SDS011;4694;52.464;13.480;2023-04-24T09:31:02;1.35;;;0.40;;
9310;SDS011;4694;52.464;13.480;2023-04-24T09:33:30;2.10;;;0.43;;
9310;SDS011;4694;52.464;13.480;2023-04-24T09:35:58;2.13;;;0.45;;
9310;SDS011;4694;52.464;13.480;2023-04-24T09:38:32;1.98;;;0.47;;
9310;SDS011;4694;52.464;13.480;2023-04-24T09:41:00;1.33;;;0.70;;
9310;SDS011;4694;52.464;13.480;2023-04-24T09:43:28;2.05;;;1.20;;
9310;SDS011;4694;52.464;13.480;2023-04-24T09:45:57;1.60;;;0.45;;
9310;SDS011;4694;52.464;13.480;2023-04-24T09:48:32;1.48;;;1.38;;
9310;SDS011;4694;52.464;13.480;2023-04-24T09:51:00;1.48;;;0.45;;
9310;SDS011;4694;52.464;13.480;2023-04-24T09:53:29;0.57;;;0.30;;
9310;SDS011;4694;52.464;13.480;2023-04-24T09:56:01;1.25;;;0.90;;
9310;SDS011;4694;52.464;13.480;2023-04-24T09:58:29;0.73;;;0.50;;
9310;SDS011;4694;52.464;13.480;2023-04-24T10:00:56;1.40;;;0.30;;
9310;SDS011;4694;52.464;13.480;2023-04-24T10:03:24;3.17;;;0.93;;
9310;SDS011;4694;52.464;13.480;2023-04-24T10:05:53;0.60;;;0.50;;
9310;SDS011;4694;52.464;13.480;2023-04-24T10:08:20;0.47;;;0.40;;
9310;SDS011;4694;52.464;13.480;2023-04-24T10:10:48;0.63;;;0.40;;
9310;SDS011;4694;52.464;13.480;2023-04-24T10:13:15;0.90;;;0.30;;
9310;SDS011;4694;52.464;13.480;2023-04-24T10:15:43;0.95;;;0.40;;
9310;SDS011;4694;52.464;13.480;2023-04-24T10:18:10;2.25;;;0.50;;
9310;SDS011;4694;52.464;13.480;2023-04-24T10:20:38;0.50;;;0.30;;
9310;SDS011;4694;52.464;13.480;2023-04-24T10:23:07;1.88;;;0.68;;
9310;SDS011;4694;52.464;13.480;2023-04-24T10:25:34;0.95;;;0.30;;
9310;SDS011;4694;52.464;13.480;2023-04-24T10:28:02;1.00;;;0.40;;
9310;SDS011;4694;52.464;13.480;2023-04-24T10:30:31;2.58;;;0.50;;
9310;SDS011;4694;52.464;13.480;2023-04-24T10:33:00;1.48;;;0.40;;
9310;SDS011;4694;52.464;13.480;2023-04-24T10:35:27;1.15;;;0.40;;
9310;SDS011;4694;52.464;13.480;2023-04-24T10:37:57;2.88;;;0.32;;
9310;SDS011;4694;52.464;13.480;2023-04-24T10:40:29;1.52;;;0.30;;
9310;SDS011;4694;52.464;13.480;2023-04-24T10:42:57;0.82;;;0.60;;
9310;SDS011;4694;52.464;13.480;2023-04-24T10:45:26;1.10;;;0.57;;
9310;SDS011;4694;52.464;13.480;2023-04-24T10:47:57;0.30;;;0.30;;
9310;SDS011;4694;52.464;13.480;2023-04-24T10:50:26;2.63;;;0.40;;
9310;SDS011;4694;52.464;13.480;2023-04-24T10:53:04;1.52;;;1.33;;
9310;SDS011;4694;52.464;13.480;2023-04-24T10:55:43;1.23;;;0.40;;
9310;SDS011;4694;52.464;13.480;2023-04-24T10:58:11;0.63;;;0.60;;
9310;SDS011;4694;52.464;13.480;2023-04-24T11:00:40;1.50;;;0.43;;
9310;SDS011;4694;52.464;13.480;2023-04-24T11:03:12;1.63;;;1.10;;
9310;SDS011;4694;52.464;13.480;2023-04-24T11:05:51;4.03;;;0.80;;
9310;SDS011;4694;52.464;13.480;2023-04-24T11:08:22;1.13;;;0.40;;
9310;SDS011;4694;52.464;13.480;2023-04-24T11:10:55;1.02;;;0.40;;
9310;SDS011;4694;52.464;13.480;2023-04-24T11:13:23;2.55;;;0.57;;
9310;SDS011;4694;52.464;13.480;2023-04-24T11:18:38;2.53;;;0.45;;
9310;SDS011;4694;52.464;13.480;2023-04-24T11:21:10;2.58;;;0.43;;
9310;SDS011;4694;52.464;13.480;2023-04-24T11:23:38;2.17;;;0.40;;
9310;SDS011;4694;52.464;13.480;2023-04-24T11:26:14;2.08;;;0.60;;
9310;SDS011;4694;52.464;13.480;2023-04-24T11:28:44;2.90;;;0.45;;
9310;SDS011;4694;52.464;13.480;2023-04-24T11:33:56;3.20;;;0.80;;
9310;SDS011;4694;52.464;13.480;2023-04-24T11:36:24;2.20;;;1.13;;
9310;SDS011;4694;52.464;13.480;2023-04-24T11:38:51;3.97;;;0.90;;
9310;SDS011;4694;52.464;13.480;2023-04-24T11:41:20;1.25;;;0.90;;
9310;SDS011;4694;52.464;13.480;2023-04-24T11:43:47;2.40;;;1.50;;
9310;SDS011;4694;52.464;13.480;2023-04-24T11:46:16;2.15;;;1.95;;
9310;SDS011;4694;52.464;13.480;2023-04-24T11:48:44;1.70;;;1.60;;
9310;SDS011;4694;52.464;13.480;2023-04-24T11:51:12;4.75;;;1.88;;
9310;SDS011;4694;52.464;13.480;2023-04-24T11:53:39;2.17;;;1.48;;
9310;SDS011;4694;52.464;13.480;2023-04-24T11:56:07;3.38;;;0.80;;
9310;SDS011;4694;52.464;13.480;2023-04-24T11:58:37;0.50;;;0.50;;
9310;SDS011;4694;52.464;13.480;2023-04-24T12:01:04;2.47;;;0.70;;
9310;SDS011;4694;52.464;13.480;2023-04-24T12:03:32;2.15;;;0.55;;
9310;SDS011;4694;52.464;13.480;2023-04-24T12:06:05;1.20;;;0.32;;
9310;SDS011;4694;52.464;13.480;2023-04-24T12:08:32;0.60;;;0.40;;
9310;SDS011;4694;52.464;13.480;2023-04-24T12:10:59;2.85;;;1.20;;
9310;SDS011;4694;52.464;13.480;2023-04-24T12:13:26;0.90;;;0.50;;
9310;SDS011;4694;52.464;13.480;2023-04-24T12:15:56;0.82;;;0.40;;
9310;SDS011;4694;52.464;13.480;2023-04-24T12:18:23;0.73;;;0.38;;
9310;SDS011;4694;52.464;13.480;2023-04-24T12:20:50;2.03;;;0.50;;
9310;SDS011;4694;52.464;13.480;2023-04-24T12:25:59;0.77;;;0.50;;
9310;SDS011;4694;52.464;13.480;2023-04-24T12:28:34;0.95;;;0.60;;
9310;SDS011;4694;52.464;13.480;2023-04-24T12:31:02;1.15;;;0.40;;
9310;SDS011;4694;52.464;13.480;2023-04-24T12:33:32;0.70;;;0.70;;
9310;SDS011;4694;52.464;13.480;2023-04-24T12:36:00;0.30;;;0.30;;
9310;SDS011;4694;52.464;13.480;2023-04-24T12:38:27;1.35;;;0.55;;
9310;SDS011;4694;52.464;13.480;2023-04-24T12:41:01;0.73;;;0.40;;
9310;SDS011;4694;52.464;13.480;2023-04-24T12:43:29;2.90;;;0.50;;
9310;SDS011;4694;52.464;13.480;2023-04-24T12:45:56;0.30;;;0.30;;
9310;SDS011;4694;52.464;13.480;2023-04-24T12:48:25;1.38;;;0.30;;
9310;SDS011;4694;52.464;13.480;2023-04-24T12:50:52;0.60;;;0.30;;
9310;SDS011;4694;52.464;13.480;2023-04-24T12:53:20;1.85;;;0.38;;
9310;SDS011;4694;52.464;13.480;2023-04-24T12:55:47;0.60;;;0.30;;
9310;SDS011;4694;52.464;13.480;2023-04-24T13:00:44;0.22;;;0.20;;
9310;SDS011;4694;52.464;13.480;2023-04-24T13:03:11;1.75;;;0.20;;
9310;SDS011;4694;52.464;13.480;2023-04-24T13:05:40;0.60;;;0.30;;
9310;SDS011;4694;52.464;13.480;2023-04-24T13:08:07;2.15;;;0.43;;
9310;SDS011;4694;52.464;13.480;2023-04-24T13:10:34;0.65;;;0.40;;
9310;SDS011;4694;52.464;13.480;2023-04-24T13:13:01;1.20;;;0.20;;
9310;SDS011;4694;52.464;13.480;2023-04-24T13:15:29;0.85;;;0.30;;
9310;SDS011;4694;52.464;13.480;2023-04-24T13:17:56;1.50;;;0.30;;
9310;SDS011;4694;52.464;13.480;2023-04-24T13:20:23;0.50;;;0.30;;
9310;SDS011;4694;52.464;13.480;2023-04-24T13:22:52;0.52;;;0.30;;
9310;SDS011;4694;52.464;13.480;2023-04-24T13:25:19;0.38;;;0.38;;
9310;SDS011;4694;52.464;13.480;2023-04-24T13:27:49;2.45;;;0.40;;
9310;SDS011;4694;52.464;13.480;2023-04-24T13:30:16;1.13;;;0.50;;
9310;SDS011;4694;52.464;13.480;2023-04-24T13:32:43;0.57;;;0.50;;
9310;SDS011;4694;52.464;13.480;2023-04-24T13:35:10;0.63;;;0.20;;
9310;SDS011;4694;52.464;13.480;2023-04-24T13:37:37;0.88;;;0.20;;
9310;SDS011;4694;52.464;13.480;2023-04-24T13:40:08;2.35;;;0.40;;
9310;SDS011;4694;52.464;13.480;2023-04-24T13:42:35;0.30;;;0.30;;
9310;SDS011;4694;52.464;13.480;2023-04-24T13:45:02;2.15;;;0.30;;
9310;SDS011;4694;52.464;13.480;2023-04-24T13:47:30;1.45;;;0.28;;
9310;SDS011;4694;52.464;13.480;2023-04-24T13:49:57;1.38;;;0.40;;
9310;SDS011;4694;52.464;13.480;2023-04-24T13:52:24;0.77;;;0.30;;
9310;SDS011;4694;52.464;13.480;2023-04-24T13:54:51;1.67;;;0.35;;
9310;SDS011;4694;52.464;13.480;2023-04-24T13:57:20;0.50;;;0.40;;
9310;SDS011;4694;52.464;13.480;2023-04-24T13:59:47;1.75;;;0.30;;
9310;SDS011;4694;52.464;13.480;2023-04-24T14:02:14;0.90;;;0.30;;
9310;SDS011;4694;52.464;13.480;2023-04-24T14:04:40;2.22;;;0.52;;
9310;SDS011;4694;52.464;13.480;2023-04-24T14:07:07;0.47;;;0.30;;
9310;SDS011;4694;52.464;13.480;2023-04-24T14:09:35;2.65;;;0.40;;
9310;SDS011;4694;52.464;13.480;2023-04-24T14:12:02;1.35;;;0.40;;
9310;SDS011;4694;52.464;13.480;2023-04-24T14:14:30;0.82;;;0.40;;
9310;SDS011;4694;52.464;13.480;2023-04-24T14:16:57;0.88;;;0.40;;
9310;SDS011;4694;52.464;13.480;2023-04-24T14:19:24;1.80;;;0.47;;
9310;SDS011;4694;52.464;13.480;2023-04-24T14:21:51;0.47;;;0.38;;
9310;SDS011;4694;52.464;13.480;2023-04-24T14:24:20;0.98;;;0.50;;
9310;SDS011;4694;52.464;13.480;2023-04-24T14:26:47;0.45;;;0.30;;
9310;SDS011;4694;52.464;13.480;2023-04-24T14:29:14;1.42;;;0.45;;
9310;SDS011;4694;52.464;13.480;2023-04-24T14:31:43;2.55;;;0.40;;
9310;SDS011;4694;52.464;13.480;2023-04-24T14:34:11;3.92;;;0.57;;
9310;SDS011;4694;52.464;13.480;2023-04-24T14:36:38;2.38;;;0.40;;
9310;SDS011;4694;52.464;13.480;2023-04-24T14:39:05;0.52;;;0.50;;
9310;SDS011;4694;52.464;13.480;2023-04-24T14:41:33;0.50;;;0.50;;
9310;SDS011;4694;52.464;13.480;2023-04-24T14:44:00;1.73;;;0.50;;
9310;SDS011;4694;52.464;13.480;2023-04-24T14:46:28;0.70;;;0.70;;
9310;SDS011;4694;52.464;13.480;2023-04-24T14:48:57;1.13;;;0.35;;
9310;SDS011;4694;52.464;13.480;2023-04-24T14:51:24;0.40;;;0.32;;
9310;SDS011;4694;52.464;13.480;2023-04-24T14:53:51;0.93;;;0.50;;
9310;SDS011;4694;52.464;13.480;2023-04-24T14:56:18;2.55;;;0.40;;
9310;SDS011;4694;52.464;13.480;2023-04-24T14:58:45;0.40;;;0.40;;
9310;SDS011;4694;52.464;13.480;2023-04-24T15:01:13;1.10;;;0.50;;
9310;SDS011;4694;52.464;13.480;2023-04-24T15:03:40;1.92;;;0.60;;
9310;SDS011;4694;52.464;13.480;2023-04-24T15:06:08;2.17;;;0.45;;
9310;SDS011;4694;52.464;13.480;2023-04-24T15:08:35;1.45;;;1.00;;
9310;SDS011;4694;52.464;13.480;2023-04-24T15:11:02;0.70;;;0.68;;
9310;SDS011;4694;52.464;13.480;2023-04-24T15:13:30;1.75;;;0.63;;
9310;SDS011;4694;52.464;13.480;2023-04-24T15:15:57;0.70;;;0.40;;
9310;SDS011;4694;52.464;13.480;2023-04-24T15:18:24;1.00;;;0.90;;
9310;SDS011;4694;52.464;13.480;2023-04-24T15:20:52;2.17;;;0.55;;
9310;SDS011;4694;52.464;13.480;2023-04-24T15:23:21;2.58;;;0.73;;
9310;SDS011;4694;52.464;13.480;2023-04-24T15:25:48;1.48;;;1.20;;
9310;SDS011;4694;52.464;13.480;2023-04-24T15:28:15;2.63;;;0.60;;
9310;SDS011;4694;52.464;13.480;2023-04-24T15:30:42;1.88;;;0.60;;
9310;SDS011;4694;52.464;13.480;2023-04-24T15:33:10;0.80;;;0.57;;
9310;SDS011;4694;52.464;13.480;2023-04-24T15:35:37;2.28;;;0.95;;
9310;SDS011;4694;52.464;13.480;2023-04-24T15:38:05;1.83;;;0.50;;
9310;SDS011;4694;52.464;13.480;2023-04-24T15:40:33;0.80;;;0.80;;
9310;SDS011;4694;52.464;13.480;2023-04-24T15:43:00;0.70;;;0.57;;
9310;SDS011;4694;52.464;13.480;2023-04-24T15:45:27;1.30;;;0.77;;
9310;SDS011;4694;52.464;13.480;2023-04-24T15:47:55;0.70;;;0.70;;
9310;SDS011;4694;52.464;13.480;2023-04-24T15:50:22;2.45;;;0.75;;
9310;SDS011;4694;52.464;13.480;2023-04-24T15:52:49;1.02;;;0.73;;
9310;SDS011;4694;52.464;13.480;2023-04-24T15:55:17;0.90;;;0.70;;
9310;SDS011;4694;52.464;13.480;2023-04-24T15:57:45;2.35;;;0.60;;
9310;SDS011;4694;52.464;13.480;2023-04-24T16:00:13;0.80;;;0.60;;
9310;SDS011;4694;52.464;13.480;2023-04-24T16:02:40;1.92;;;0.70;;
9310;SDS011;4694;52.464;13.480;2023-04-24T16:05:07;1.95;;;0.85;;
9310;SDS011;4694;52.464;13.480;2023-04-24T16:07:36;0.73;;;0.60;;
9310;SDS011;4694;52.464;13.480;2023-04-24T16:10:03;1.13;;;0.82;;
9310;SDS011;4694;52.464;13.480;2023-04-24T16:12:31;1.20;;;0.55;;
9310;SDS011;4694;52.464;13.480;2023-04-24T16:15:00;1.23;;;0.50;;
9310;SDS011;4694;52.464;13.480;2023-04-24T16:17:27;1.52;;;1.42;;
9310;SDS011;4694;52.464;13.480;2023-04-24T16:19:54;2.03;;;0.60;;
9310;SDS011;4694;52.464;13.480;2023-04-24T16:22:21;1.00;;;0.60;;
9310;SDS011;4694;52.464;13.480;2023-04-24T16:24:48;2.00;;;0.50;;
9310;SDS011;4694;52.464;13.480;2023-04-24T16:27:15;4.78;;;0.88;;
9310;SDS011;4694;52.464;13.480;2023-04-24T16:29:43;1.27;;;0.60;;
9310;SDS011;4694;52.464;13.480;2023-04-24T16:32:11;2.92;;;1.05;;
9310;SDS011;4694;52.464;13.480;2023-04-24T16:34:38;1.23;;;0.50;;
9310;SDS011;4694;52.464;13.480;2023-04-24T16:37:05;3.83;;;2.25;;
9310;SDS011;4694;52.464;13.480;2023-04-24T16:39:32;2.55;;;0.75;;
9310;SDS011;4694;52.464;13.480;2023-04-24T16:42:00;2.47;;;0.70;;
9310;SDS011;4694;52.464;13.480;2023-04-24T16:44:27;1.45;;;0.70;;
9310;SDS011;4694;52.464;13.480;2023-04-24T16:46:54;1.20;;;0.88;;
9310;SDS011;4694;52.464;13.480;2023-04-24T16:49:23;1.42;;;1.20;;
9310;SDS011;4694;52.464;13.480;2023-04-24T16:51:54;1.40;;;0.60;;
9310;SDS011;4694;52.464;13.480;2023-04-24T16:54:21;1.15;;;0.50;;
9310;SDS011;4694;52.464;13.480;2023-04-24T16:56:49;1.10;;;1.00;;
9310;SDS011;4694;52.464;13.480;2023-04-24T16:59:16;1.15;;;0.82;;
9310;SDS011;4694;52.464;13.480;2023-04-24T17:01:43;15.98;;;6.47;;
9310;SDS011;4694;52.464;13.480;2023-04-24T17:04:11;0.68;;;0.38;;
9310;SDS011;4694;52.464;13.480;2023-04-24T17:06:39;4.05;;;0.40;;
9310;SDS011;4694;52.464;13.480;2023-04-24T17:09:06;0.73;;;0.20;;
9310;SDS011;4694;52.464;13.480;2023-04-24T17:11:33;0.57;;;0.30;;
9310;SDS011;4694;52.464;13.480;2023-04-24T17:14:00;0.90;;;0.50;;
9310;SDS011;4694;52.464;13.480;2023-04-24T17:16:28;0.57;;;0.30;;
9310;SDS011;4694;52.464;13.480;2023-04-24T17:18:55;3.67;;;0.55;;
9310;SDS011;4694;52.464;13.480;2023-04-24T17:21:23;1.90;;;0.60;;
9310;SDS011;4694;52.464;13.480;2023-04-24T17:23:52;1.35;;;0.52;;
9310;SDS011;4694;52.464;13.480;2023-04-24T17:26:19;3.38;;;0.50;;
9310;SDS011;4694;52.464;13.480;2023-04-24T17:28:46;1.92;;;0.60;;
9310;SDS011;4694;52.464;13.480;2023-04-24T17:31:13;0.50;;;0.40;;
9310;SDS011;4694;52.464;13.480;2023-04-24T17:33:40;1.88;;;0.40;;
9310;SDS011;4694;52.464;13.480;2023-04-24T17:36:07;1.75;;;0.82;;
9310;SDS011;4694;52.464;13.480;2023-04-24T17:38:35;0.52;;;0.32;;
9310;SDS011;4694;52.464;13.480;2023-04-24T17:41:03;1.08;;;0.63;;
9310;SDS011;4694;52.464;13.480;2023-04-24T17:43:31;0.88;;;0.32;;
9310;SDS011;4694;52.464;13.480;2023-04-24T17:45:58;1.00;;;0.60;;
9310;SDS011;4694;52.464;13.480;2023-04-24T17:48:25;0.70;;;0.30;;
9310;SDS011;4694;52.464;13.480;2023-04-24T17:50:52;1.05;;;0.50;;
9310;SDS011;4694;52.464;13.480;2023-04-24T17:53:20;1.13;;;0.63;;
9310;SDS011;4694;52.464;13.480;2023-04-24T17:55:47;1.58;;;0.85;;
9310;SDS011;4694;52.464;13.480;2023-04-24T17:58:15;1.48;;;0.50;;
9310;SDS011;4694;52.464;13.480;2023-04-24T18:00:43;1.65;;;0.30;;
9310;SDS011;4694;52.464;13.480;2023-04-24T18:03:10;0.77;;;0.40;;
9310;SDS011;4694;52.464;13.480;2023-04-24T18:05:37;2.83;;;0.60;;
9310;SDS011;4694;52.464;13.480;2023-04-24T18:08:05;0.47;;;0.43;;
9310;SDS011;4694;52.464;13.480;2023-04-24T18:10:33;1.38;;;0.90;;
9310;SDS011;4694;52.464;13.480;2023-04-24T18:13:01;3.40;;;1.00;;
9310;SDS011;4694;52.464;13.480;2023-04-24T18:15:30;5.55;;;1.15;;
9310;SDS011;4694;52.464;13.480;2023-04-24T18:17:59;0.90;;;0.90;;
9310;SDS011;4694;52.464;13.480;2023-04-24T18:20:27;1.13;;;0.82;;
9310;SDS011;4694;52.464;13.480;2023-04-24T18:22:54;3.97;;;2.63;;
9310;SDS011;4694;52.464;13.480;2023-04-24T18:25:21;2.05;;;1.23;;
9310;SDS011;4694;52.464;13.480;2023-04-24T18:27:50;2.47;;;1.00;;
9310;SDS011;4694;52.464;13.480;2023-04-24T18:30:18;1.95;;;0.70;;
9310;SDS011;4694;52.464;13.480;2023-04-24T18:32:48;2.60;;;0.50;;
9310;SDS011;4694;52.464;13.480;2023-04-24T18:35:16;1.67;;;0.50;;
9310;SDS011;4694;52.464;13.480;2023-04-24T18:37:43;1.65;;;0.47;;
9310;SDS011;4694;52.464;13.480;2023-04-24T18:40:11;0.73;;;0.60;;
9310;SDS011;4694;52.464;13.480;2023-04-24T18:42:38;0.60;;;0.50;;
9310;SDS011;4694;52.464;13.480;2023-04-24T18:45:05;0.70;;;0.70;;
9310;SDS011;4694;52.464;13.480;2023-04-24T18:47:32;2.25;;;0.93;;
9310;SDS011;4694;52.464;13.480;2023-04-24T18:50:01;0.40;;;0.30;;
9310;SDS011;4694;52.464;13.480;2023-04-24T18:52:28;0.63;;;0.20;;
9310;SDS011;4694;52.464;13.480;2023-04-24T18:54:55;0.50;;;0.25;;
9310;SDS011;4694;52.464;13.480;2023-04-24T18:57:22;0.88;;;0.20;;
9310;SDS011;4694;52.464;13.480;2023-04-24T18:59:49;0.52;;;0.40;;
9310;SDS011;4694;52.464;13.480;2023-04-24T19:02:16;1.88;;;0.30;;
9310;SDS011;4694;52.464;13.480;2023-04-24T19:04:43;0.85;;;0.20;;
9310;SDS011;4694;52.464;13.480;2023-04-24T19:07:11;0.50;;;0.20;;
9310;SDS011;4694;52.464;13.480;2023-04-24T19:09:38;1.25;;;0.20;;
9310;SDS011;4694;52.464;13.480;2023-04-24T19:12:05;0.70;;;0.40;;
9310;SDS011;4694;52.464;13.480;2023-04-24T19:14:32;1.98;;;0.30;;
9310;SDS011;4694;52.464;13.480;2023-04-24T19:16:59;0.40;;;0.22;;
9310;SDS011;4694;52.464;13.480;2023-04-24T19:19:26;1.48;;;0.20;;
9310;SDS011;4694;52.464;13.480;2023-04-24T19:21:55;2.50;;;0.20;;
9310;SDS011;4694;52.464;13.480;2023-04-24T19:24:24;0.32;;;0.22;;
9310;SDS011;4694;52.464;13.480;2023-04-24T19:26:53;1.35;;;0.40;;
